Red Fish, Louisiana
Current Conditions -  °F | °C
As of 4:55 PM on Thursday 18 Dec 2014 (Local Time) from KHZR Reporting Station
Light Rain Light Rain  
Wind Chill: 55°   Ceiling: 300
Heat Index: 55°   Visibility: 2mi
Dew Point: 54°   Wind: 3mph
Humidity: 98%   Direction: 360°N
Pressure: 30.1"   Gusts: NA
Location:  30.9317°N, 91.8606°W
Report Text: KHZR 182255Z AUTO 36003KT 2SM -RA OVC003 13/12 A3010 RMK AO2 P0040 T01260123
Loading
Personal Weather Stations






























Interactive Weather Map New forecast layout! Learn more

10-Day Weather Forecast

Advertisements
Track Severe Weather on mobile